createdAt,value
2023-01-09T00:07:12.159Z,1.80
2023-01-09T00:27:11.982Z,3.60
2023-01-09T00:47:19.096Z,2.80
2023-01-09T01:07:11.337Z,3.60
2023-01-09T01:27:11.091Z,2.20
2023-01-09T01:47:10.764Z,5.20
2023-01-09T02:07:10.522Z,2.90
2023-01-09T02:27:10.228Z,3.40
2023-01-09T02:47:09.951Z,6.70
2023-01-09T03:07:09.691Z,4.10
2023-01-09T03:27:09.422Z,6.00
2023-01-09T03:47:09.147Z,10.20
2023-01-09T04:07:08.927Z,5.90
2023-01-09T04:27:08.618Z,5.20
2023-01-09T04:47:08.341Z,5.00
2023-01-09T05:07:08.090Z,4.10
2023-01-09T05:27:07.846Z,5.60
2023-01-09T05:47:07.557Z,6.00
2023-01-09T06:07:07.279Z,4.00
2023-01-09T06:27:07.004Z,3.90
2023-01-09T06:47:06.743Z,4.60
2023-01-09T07:07:06.484Z,4.30
2023-01-09T07:27:06.205Z,3.10
2023-01-09T07:47:05.921Z,2.70
2023-01-09T08:07:05.688Z,3.60
2023-01-09T08:27:05.401Z,6.70
2023-01-09T08:47:05.127Z,11.10
2023-01-09T09:07:04.893Z,15.20
2023-01-09T09:27:04.585Z,12.80
2023-01-09T09:47:04.340Z,8.10
2023-01-09T10:07:04.047Z,7.80
2023-01-09T10:27:03.777Z,18.00
2023-01-09T10:47:03.510Z,11.40
2023-01-09T11:07:03.271Z,9.80
2023-01-09T11:27:03.029Z,15.90
2023-01-09T11:47:02.768Z,12.90
2023-01-09T12:07:02.430Z,12.10
2023-01-09T12:27:02.164Z,11.40
2023-01-09T12:47:01.891Z,7.80
2023-01-09T13:08:50.966Z,7.10
2023-01-09T13:28:50.687Z,8.30
2023-01-09T13:48:50.499Z,7.80
2023-01-09T14:08:50.142Z,6.20
2023-01-09T14:28:49.927Z,5.60
2023-01-09T14:48:49.583Z,8.00
2023-01-09T15:08:49.307Z,10.80
2023-01-09T15:28:49.029Z,10.90
2023-01-09T15:48:48.749Z,11.70
2023-01-09T16:08:48.504Z,5.30
2023-01-09T16:28:48.327Z,9.90
2023-01-09T16:48:47.943Z,13.30
2023-01-09T17:08:47.664Z,13.20
2023-01-09T17:28:47.380Z,13.10
2023-01-09T17:48:47.107Z,11.10
2023-01-09T18:08:46.848Z,10.30
2023-01-09T18:28:46.583Z,11.10
2023-01-09T18:48:55.018Z,11.10
2023-01-09T19:08:46.013Z,10.00
2023-01-09T19:28:45.879Z,8.30
2023-01-09T19:48:45.494Z,15.60
2023-01-09T20:08:45.222Z,9.40
2023-01-09T20:28:44.940Z,12.40
2023-01-09T20:48:44.652Z,9.40
2023-01-09T21:08:44.388Z,11.70
2023-01-09T21:28:44.154Z,7.30
2023-01-09T21:48:43.835Z,4.90
2023-01-09T22:08:43.569Z,7.30
2023-01-09T22:28:43.285Z,7.10
2023-01-09T22:48:43.018Z,7.30
2023-01-09T23:08:42.755Z,4.20
2023-01-09T23:28:42.478Z,4.60
2023-01-09T23:48:42.201Z,5.50
